Time;durP1;ratioP1;P1;durP2;ratioP2;P2;SDS_P1;SDS_P2;PMS_P1;PMS_P2;Temp;Humidity;BMP_temperature;BMP_pressure;BME280_temperature;BME280_humidity;BME280_pressure;Samples;Min_cycle;Max_cycle;Signal;HPM_P1;HPM_P2
2023/07/10 00:01:48;;;;;;;4.03;2.97;;;;;;;18.38;87.51;101201.03;4856573;29;20132;-83
2023/07/10 00:04:16;;;;;;;3.92;3.42;;;;;;;18.45;86.60;101204.31;4852695;29;20100;-82
2023/07/10 00:06:45;;;;;;;4.13;3.60;;;;;;;18.47;86.48;101197.97;4864984;29;20049;-81
2023/07/10 00:09:12;;;;;;;4.18;3.00;;;;;;;18.45;87.57;101196.31;4870645;29;20139;-80
2023/07/10 00:11:40;;;;;;;4.72;4.00;;;;;;;18.40;88.68;101193.81;4866926;23;20136;-81
2023/07/10 00:14:23;;;;;;;4.63;3.80;;;;;;;18.35;89.54;101192.31;4838278;29;20054;-80
2023/07/10 00:16:51;;;;;;;4.88;3.53;;;;;;;18.27;89.32;101197.97;4822814;29;20509;-82
2023/07/10 00:19:18;;;;;;;3.95;3.10;;;;;;;18.30;89.03;101181.78;4824299;29;20141;-82
2023/07/10 00:21:49;;;;;;;5.07;3.95;;;;;;;18.29;89.59;101182.72;4836450;29;20046;-82
2023/07/10 00:24:15;;;;;;;4.47;3.58;;;;;;;18.26;89.80;101181.06;4821554;29;20046;-82
2023/07/10 00:26:42;;;;;;;3.53;3.20;;;;;;;18.21;91.23;101184.88;4850542;29;20050;-80
2023/07/10 00:29:36;;;;;;;4.70;3.20;;;;;;;18.16;91.35;101189.53;4851073;29;20102;-81
2023/07/10 00:32:10;;;;;;;4.37;3.47;;;;;;;18.14;91.47;101186.06;4820111;29;20156;-82
2023/07/10 00:34:37;;;;;;;3.20;2.90;;;;;;;18.10;92.21;101185.34;4853003;29;20136;-82
2023/07/10 00:37:04;;;;;;;6.03;3.08;;;;;;;18.01;92.52;101180.41;4867536;29;20084;-81
2023/07/10 00:39:33;;;;;;;5.55;3.45;;;;;;;18.02;92.08;101187.47;4836303;29;20473;-80
2023/07/10 00:42:04;;;;;;;3.72;3.17;;;;;;;18.02;92.79;101192.81;4850317;29;20046;-81
2023/07/10 00:44:35;;;;;;;6.57;3.53;;;;;;;17.96;93.38;101196.63;4835566;29;20081;-83
2023/07/10 00:47:11;;;;;;;4.97;3.08;;;;;;;17.92;94.51;101196.84;4842447;29;20116;-81
2023/07/10 00:49:42;;;;;;;4.97;3.67;;;;;;;17.88;95.07;101189.88;4855819;29;20101;-81
2023/07/10 00:52:22;;;;;;;6.32;3.72;;;;;;;17.86;95.18;101195.28;4826836;29;20045;-82
2023/07/10 00:54:51;;;;;;;5.28;3.42;;;;;;;17.90;94.72;101188.84;4848869;29;20050;-80
2023/07/10 00:57:33;;;;;;;3.72;2.92;;;;;;;17.88;94.32;101190.72;4854469;29;20053;-80
2023/07/10 01:00:08;;;;;;;3.35;2.95;;;;;;;17.89;93.38;101187.13;4848635;29;20042;-80
2023/07/10 01:02:34;;;;;;;4.05;2.92;;;;;;;17.88;93.27;101193.41;4839034;29;20427;-81
2023/07/10 01:05:03;;;;;;;4.43;3.45;;;;;;;17.88;94.17;101198.75;4849284;29;20066;-81
2023/07/10 01:07:35;;;;;;;3.92;3.03;;;;;;;17.92;95.38;101203.06;4833953;29;20125;-82
2023/07/10 01:10:10;;;;;;;4.30;3.70;;;;;;;17.96;97.08;101195.75;4848988;29;20137;-82
2023/07/10 01:12:39;;;;;;;4.07;3.33;;;;;;;17.94;97.27;101209.19;4849437;29;20054;-81
2023/07/10 01:15:06;;;;;;;4.95;3.22;;;;;;;17.88;97.82;101204.09;4849484;29;20050;-80
2023/07/10 01:17:33;;;;;;;4.00;3.33;;;;;;;17.84;98.17;101207.84;4864934;29;20050;-81
2023/07/10 01:20:14;;;;;;;4.55;3.45;;;;;;;17.83;99.03;101211.47;4845992;29;20052;-80
2023/07/10 01:22:40;;;;;;;4.53;3.40;;;;;;;17.83;100.00;101216.81;4841285;29;20054;-81
2023/07/10 01:25:07;;;;;;;6.00;3.92;;;;;;;17.89;99.55;101212.97;4829808;29;20416;-81
2023/07/10 01:27:34;;;;;;;4.38;3.65;;;;;;;17.89;98.64;101219.19;4866796;29;20102;-82
2023/07/10 01:30:05;;;;;;;4.60;3.50;;;;;;;17.87;99.46;101221.06;4834309;29;20046;-80
2023/07/10 01:32:32;;;;;;;4.47;3.75;;;;;;;17.84;100.00;101237.25;4824404;29;20195;-80
2023/07/10 01:35:03;;;;;;;4.38;3.40;;;;;;;17.98;99.65;101253.56;4851716;29;20048;-82
2023/07/10 01:37:31;;;;;;;5.95;4.03;;;;;;;18.05;95.43;101238.16;4871864;29;20049;-80
2023/07/10 01:39:58;;;;;;;4.07;3.20;;;;;;;18.06;93.75;101252.38;4851731;29;20173;-82
2023/07/10 01:42:25;;;;;;;4.50;3.42;;;;;;;18.11;91.84;101237.03;4856817;29;20140;-83
2023/07/10 01:44:52;;;;;;;5.18;3.50;;;;;;;18.14;89.65;101232.41;4853785;29;20369;-83
2023/07/10 01:47:19;;;;;;;4.57;3.13;;;;;;;18.14;90.79;101237.75;4833473;29;20144;-81
2023/07/10 01:49:52;;;;;;;4.65;4.10;;;;;;;18.21;90.52;101220.50;4844185;29;20414;-81
2023/07/10 01:52:21;;;;;;;3.78;3.42;;;;;;;18.19;90.73;101227.75;4838800;29;20050;-80
2023/07/10 01:54:48;;;;;;;5.00;3.10;;;;;;;18.18;92.39;101225.13;4841957;29;20070;-81
2023/07/10 01:57:16;;;;;;;3.80;3.17;;;;;;;18.15;92.17;101209.19;4848137;29;20049;-81
2023/07/10 01:59:42;;;;;;;5.57;3.63;;;;;;;18.17;91.56;101213.56;4871326;29;20046;-82
2023/07/10 02:02:09;;;;;;;5.53;3.17;;;;;;;18.31;92.94;101220.09;4863071;29;20094;-80
2023/07/10 02:04:36;;;;;;;6.47;3.35;;;;;;;18.23;92.58;101215.09;4857915;29;20046;-80
2023/07/10 02:07:03;;;;;;;4.13;3.30;;;;;;;18.11;92.96;101204.94;4857723;29;20073;-83
2023/07/10 02:09:30;;;;;;;4.85;3.55;;;;;;;18.17;90.43;101199.34;4857217;29;20045;-80
2023/07/10 02:11:57;;;;;;;4.40;3.35;;;;;;;18.11;91.89;101202.25;4830289;29;20162;-80
2023/07/10 02:14:24;;;;;;;4.32;3.45;;;;;;;18.13;92.76;101200.38;4851820;29;20564;-80
2023/07/10 02:16:51;;;;;;;4.47;3.60;;;;;;;18.12;91.77;101188.81;4850121;29;20050;-81
2023/07/10 02:19:19;;;;;;;5.07;3.40;;;;;;;18.07;92.04;101176.56;4870901;29;20106;-81
2023/07/10 02:21:46;;;;;;;3.85;3.25;;;;;;;18.06;91.21;101177.50;4844724;29;20132;-82
2023/07/10 02:24:13;;;;;;;4.72;3.83;;;;;;;18.00;93.66;101178.66;4834257;29;20405;-82
2023/07/10 02:26:40;;;;;;;4.07;3.10;;;;;;;17.96;94.79;101177.91;4851860;29;20136;-81
2023/07/10 02:29:06;;;;;;;4.35;3.17;;;;;;;17.96;95.02;101167.22;4850573;29;20534;-80
2023/07/10 02:31:33;;;;;;;4.60;3.75;;;;;;;18.06;93.72;101153.44;4854066;29;20061;-80
2023/07/10 02:34:00;;;;;;;5.05;3.75;;;;;;;18.00;94.71;101139.44;4873622;29;20050;-81
2023/07/10 02:36:28;;;;;;;5.68;3.58;;;;;;;17.94;95.58;101120.97;4836452;29;20507;-82
2023/07/10 02:38:56;;;;;;;4.88;3.65;;;;;;;17.94;96.08;101109.41;4865802;29;20038;-82
2023/07/10 02:41:22;;;;;;;4.75;3.42;;;;;;;17.97;96.77;101104.78;4852927;29;20066;-81
2023/07/10 02:43:49;;;;;;;4.50;3.60;;;;;;;18.03;95.89;101078.72;4868807;29;20046;-81
2023/07/10 02:46:16;;;;;;;4.65;3.25;;;;;;;18.19;94.71;101087.81;4853272;29;20140;-81
2023/07/10 02:48:43;;;;;;;5.60;3.50;;;;;;;18.14;95.16;101100.50;4854375;29;20125;-82
2023/07/10 02:51:09;;;;;;;4.20;3.72;;;;;;;18.03;95.15;101105.47;4845267;29;20398;-80
2023/07/10 02:53:38;;;;;;;4.03;3.33;;;;;;;17.97;96.37;101109.28;4862161;29;20050;-81
2023/07/10 02:56:04;;;;;;;5.25;3.20;;;;;;;17.87;96.89;101113.28;4870440;29;20481;-80
2023/07/10 02:58:32;;;;;;;4.72;3.75;;;;;;;17.90;96.23;101106.00;4837246;29;20496;-80
2023/07/10 03:01:01;;;;;;;4.43;4.03;;;;;;;18.04;94.69;101102.72;4852337;29;20528;-80
2023/07/10 03:03:28;;;;;;;4.97;3.45;;;;;;;18.02;96.58;101107.28;4848563;29;20073;-80
2023/07/10 03:06:00;;;;;;;4.75;3.58;;;;;;;17.95;97.07;101100.47;4845470;29;20520;-81
2023/07/10 03:08:28;;;;;;;5.35;4.13;;;;;;;17.85;97.73;101083.97;4852548;29;20046;-83
2023/07/10 03:11:03;;;;;;;5.13;3.50;;;;;;;17.87;97.44;101086.56;4875799;29;20050;-82
2023/07/10 03:13:30;;;;;;;4.22;3.20;;;;;;;17.90;96.17;101075.72;4853926;29;20132;-80
2023/07/10 03:16:03;;;;;;;4.43;3.65;;;;;;;17.93;96.84;101071.13;4843258;29;20441;-81
2023/07/10 03:18:30;;;;;;;4.70;4.18;;;;;;;17.85;97.53;101061.72;4848832;29;20085;-80
2023/07/10 03:20:57;;;;;;;4.70;4.30;;;;;;;17.81;97.02;101057.41;4855822;29;20137;-82
2023/07/10 03:23:23;;;;;;;5.60;3.83;;;;;;;17.82;97.21;101046.66;4852655;29;20050;-82
2023/07/10 03:25:50;;;;;;;4.65;3.75;;;;;;;17.80;98.54;101047.66;4837361;29;20045;-81
2023/07/10 03:28:17;;;;;;;4.35;3.95;;;;;;;17.82;98.76;101043.97;4851811;29;20073;-80
2023/07/10 03:30:44;;;;;;;6.00;3.78;;;;;;;17.88;98.73;101041.03;4851678;29;20050;-80
2023/07/10 03:33:12;;;;;;;4.55;3.65;;;;;;;17.83;100.00;101043.06;4847796;29;20045;-80
2023/07/10 03:35:39;;;;;;;4.93;3.90;;;;;;;17.87;99.38;101043.78;4826876;29;20526;-81
2023/07/10 03:38:06;;;;;;;5.45;3.50;;;;;;;17.77;100.00;101039.78;4862288;29;20073;-81
2023/07/10 03:40:33;;;;;;;3.95;3.50;;;;;;;17.69;100.00;101034.75;4876402;29;20069;-82
2023/07/10 03:43:00;;;;;;;4.68;3.60;;;;;;;17.72;100.00;101040.84;4839328;29;20056;-82
2023/07/10 03:45:29;;;;;;;4.45;3.67;;;;;;;17.81;99.57;101044.91;4834107;29;20042;-81
2023/07/10 03:47:55;;;;;;;4.82;4.20;;;;;;;17.80;98.80;101035.16;4840325;29;20046;-81
2023/07/10 03:50:22;;;;;;;4.32;3.70;;;;;;;17.77;99.40;101037.13;4851806;29;20056;-82
2023/07/10 03:52:49;;;;;;;5.43;4.20;;;;;;;17.85;99.55;101024.28;4843055;29;20069;-81
2023/07/10 03:55:15;;;;;;;4.35;3.80;;;;;;;17.85;99.99;101024.28;4854706;29;20056;-81
2023/07/10 03:57:42;;;;;;;3.95;3.55;;;;;;;17.79;100.00;101017.41;4847375;29;20048;-83
2023/07/10 04:00:10;;;;;;;4.18;3.78;;;;;;;17.70;100.00;101023.16;4834542;29;20134;-82
2023/07/10 04:02:41;;;;;;;5.60;3.95;;;;;;;17.80;100.00;101026.28;4852263;29;20046;-82
2023/07/10 04:05:08;;;;;;;4.78;3.90;;;;;;;17.74;100.00;101027.44;4853192;29;20046;-83
2023/07/10 04:07:34;;;;;;;5.82;4.20;;;;;;;17.69;100.00;101029.41;4858454;29;20082;-82
2023/07/10 04:10:01;;;;;;;6.20;4.00;;;;;;;17.69;100.00;101027.59;4871666;29;20423;-82
2023/07/10 04:12:28;;;;;;;6.82;3.90;;;;;;;17.76;100.00;101030.03;4827446;29;20676;-80
2023/07/10 04:14:55;;;;;;;6.20;4.00;;;;;;;17.74;100.00;101030.13;4853037;29;20045;-81
2023/07/10 04:17:21;;;;;;;4.57;4.00;;;;;;;17.66;100.00;101037.56;4821586;29;20077;-84
2023/07/10 04:19:48;;;;;;;6.45;4.07;;;;;;;17.66;100.00;101045.59;4834938;29;20300;-82
2023/07/10 04:22:15;;;;;;;4.85;4.00;;;;;;;17.56;100.00;101046.91;4852011;29;20080;-82
2023/07/10 04:24:42;;;;;;;4.95;3.90;;;;;;;17.59;100.00;101047.66;4851454;29;20404;-83
2023/07/10 04:27:09;;;;;;;5.35;4.35;;;;;;;17.56;100.00;101036.22;4842774;29;20132;-81
2023/07/10 04:29:36;;;;;;;4.63;4.13;;;;;;;17.61;100.00;101026.19;4855760;29;20146;-82
2023/07/10 04:32:03;;;;;;;4.20;3.80;;;;;;;17.67;100.00;101029.47;4853738;29;20121;-80
2023/07/10 04:34:29;;;;;;;5.03;3.97;;;;;;;17.83;100.00;101032.38;4850636;29;20049;-81
2023/07/10 04:36:56;;;;;;;4.28;3.88;;;;;;;17.90;100.00;101030.28;4853983;29;20128;-80
2023/07/10 04:39:23;;;;;;;6.38;4.18;;;;;;;18.00;100.00;101028.94;4848542;29;20094;-80
2023/07/10 04:41:50;;;;;;;6.00;4.45;;;;;;;17.99;100.00;101027.19;4871535;29;20094;-81
2023/07/10 04:44:16;;;;;;;9.13;5.15;;;;;;;18.14;100.00;101030.97;4870028;29;20414;-81
2023/07/10 04:46:43;;;;;;;5.18;4.07;;;;;;;18.21;100.00;101029.75;4858127;29;20082;-81
2023/07/10 04:49:10;;;;;;;5.00;4.43;;;;;;;18.42;100.00;101036.78;4852219;29;20042;-81
2023/07/10 04:51:37;;;;;;;4.80;4.13;;;;;;;18.57;100.00;101030.69;4854907;29;20046;-80
2023/07/10 04:54:03;;;;;;;4.72;4.10;;;;;;;18.69;100.00;101040.00;4853706;29;20113;-80
2023/07/10 04:56:30;;;;;;;4.07;3.63;;;;;;;18.77;100.00;101047.66;4843640;29;20077;-80
2023/07/10 04:58:58;;;;;;;7.50;5.22;;;;;;;18.96;100.00;101064.56;4864173;29;20080;-80
2023/07/10 05:01:29;;;;;;;5.55;4.50;;;;;;;18.99;100.00;101076.91;4869988;29;20049;-80
2023/07/10 05:03:56;;;;;;;4.50;4.10;;;;;;;19.01;100.00;101080.41;4861878;29;20049;-80
2023/07/10 05:06:23;;;;;;;4.75;3.58;;;;;;;19.00;100.00;101071.50;4841948;29;20164;-80
2023/07/10 05:08:55;;;;;;;6.00;4.03;;;;;;;19.04;100.00;101048.97;4864368;29;20057;-81
2023/07/10 05:11:28;;;;;;;6.00;4.38;;;;;;;19.04;100.00;101035.59;4884772;29;20049;-82
2023/07/10 05:13:59;;;;;;;8.63;5.20;;;;;;;19.19;100.00;101028.59;4863108;29;20046;-84
2023/07/10 05:16:27;;;;;;;7.57;4.50;;;;;;;19.18;100.00;101036.72;4864780;29;20136;-86
2023/07/10 05:18:54;;;;;;;6.35;4.65;;;;;;;19.11;100.00;101034.34;4855231;29;20050;-84
2023/07/10 05:21:21;;;;;;;7.30;5.45;;;;;;;18.94;100.00;101033.44;4863079;29;20061;-83
2023/07/10 05:23:49;;;;;;;6.20;5.32;;;;;;;18.77;100.00;101043.16;4861119;29;20250;-87
2023/07/10 05:26:17;;;;;;;5.72;4.57;;;;;;;18.80;100.00;101047.50;4857701;29;20057;-85
2023/07/10 05:28:44;;;;;;;5.53;4.93;;;;;;;18.77;100.00;101047.66;4857432;29;20046;-87
2023/07/10 05:31:12;;;;;;;8.02;4.57;;;;;;;18.64;100.00;101058.03;4884165;29;20114;-84
2023/07/10 05:33:40;;;;;;;6.95;5.70;;;;;;;18.64;100.00;101076.78;4850615;29;20424;-83
2023/07/10 05:36:10;;;;;;;7.72;5.50;;;;;;;18.59;100.00;101102.03;4873333;29;20054;-83
2023/07/10 05:38:37;;;;;;;6.03;5.38;;;;;;;18.51;100.00;101124.66;4854360;29;20046;-83
2023/07/10 05:41:04;;;;;;;6.70;5.10;;;;;;;18.52;100.00;101141.56;4862447;29;20478;-85
2023/07/10 05:43:33;;;;;;;6.65;5.63;;;;;;;18.52;100.00;101147.78;4835715;29;20079;-84
2023/07/10 05:46:00;;;;;;;7.65;6.07;;;;;;;18.45;100.00;101167.75;4855630;29;20133;-84
2023/07/10 05:48:28;;;;;;;6.30;5.53;;;;;;;18.39;100.00;101192.06;4852713;29;20049;-86
2023/07/10 05:50:55;;;;;;;6.28;5.68;;;;;;;18.35;100.00;101217.25;4850955;29;20512;-83
2023/07/10 05:53:23;;;;;;;6.82;5.40;;;;;;;18.34;100.00;101239.59;4849437;29;20329;-84
2023/07/10 05:55:52;;;;;;;9.07;5.78;;;;;;;18.35;100.00;101254.69;4858334;29;20136;-83
2023/07/10 05:58:22;;;;;;;7.78;6.18;;;;;;;18.40;100.00;101257.16;4858843;29;20046;-85
2023/07/10 06:00:50;;;;;;;6.25;5.70;;;;;;;18.38;100.00;101253.69;4842675;29;20130;-87
2023/07/10 06:03:17;;;;;;;7.30;5.63;;;;;;;18.32;100.00;101261.97;4847573;29;20038;-84
2023/07/10 06:05:59;;;;;;;6.63;5.93;;;;;;;18.38;100.00;101257.22;4858602;29;20068;-86
2023/07/10 06:08:28;;;;;;;7.03;5.72;;;;;;;18.35;100.00;101254.69;4859741;29;20050;-87
2023/07/10 06:10:56;;;;;;;6.53;5.88;;;;;;;18.36;100.00;101243.06;4864859;29;20042;-87
2023/07/10 06:13:24;;;;;;;7.53;5.97;;;;;;;18.28;100.00;101232.69;4884570;29;20069;-88
2023/07/10 06:15:54;;;;;;;7.55;5.93;;;;;;;18.28;100.00;101229.16;4851486;29;20082;-87
2023/07/10 06:18:21;;;;;;;6.75;5.88;;;;;;;18.24;100.00;101225.75;4889399;29;20145;-87
2023/07/10 06:20:59;;;;;;;8.38;6.35;;;;;;;18.35;100.00;101216.38;4854843;29;20039;-85
2023/07/10 06:23:28;;;;;;;8.57;6.57;;;;;;;18.39;100.00;101208.13;4863434;29;20066;-86
2023/07/10 06:25:58;;;;;;;7.85;6.10;;;;;;;18.37;100.00;101185.06;4870646;29;20535;-86
2023/07/10 06:28:26;;;;;;;7.40;5.90;;;;;;;18.42;100.00;101157.19;4848991;29;21216;-88
2023/07/10 06:30:56;;;;;;;7.30;6.28;;;;;;;18.47;100.00;101144.44;4862394;29;20473;-87
2023/07/10 06:33:23;;;;;;;7.47;6.22;;;;;;;18.50;100.00;101106.00;4854425;29;20051;-88
2023/07/10 06:35:50;;;;;;;7.95;6.10;;;;;;;18.47;100.00;101092.75;4862404;29;20064;-87
2023/07/10 06:38:17;;;;;;;7.25;6.10;;;;;;;18.50;100.00;101076.56;4862359;29;20065;-88
2023/07/10 06:40:45;;;;;;;8.25;6.65;;;;;;;18.48;100.00;101062.38;4883057;29;20042;-85
2023/07/10 06:43:12;;;;;;;6.85;6.18;;;;;;;18.41;100.00;101051.09;4857232;29;20140;-84
2023/07/10 06:45:39;;;;;;;7.50;5.82;;;;;;;18.45;100.00;101054.50;4848263;29;20046;-87
2023/07/10 06:48:06;;;;;;;7.25;6.55;;;;;;;18.38;100.00;101043.22;4835215;29;20099;-85
2023/07/10 06:50:33;;;;;;;8.57;6.75;;;;;;;18.51;100.00;101040.84;4864673;29;20045;-87
2023/07/10 06:53:00;;;;;;;6.55;5.93;;;;;;;18.56;100.00;101031.63;4855613;29;20489;-87
2023/07/10 06:56:01;;;;;;;7.20;6.30;;;;;;;18.66;100.00;101041.94;4847977;29;20045;-88
2023/07/10 06:58:30;;;;;;;7.93;6.95;;;;;;;18.82;100.00;101027.72;4841483;29;20045;-84
2023/07/10 07:00:57;;;;;;;7.53;6.05;;;;;;;18.82;100.00;101024.19;4843042;29;20046;-85
2023/07/10 07:03:24;;;;;;;7.57;6.32;;;;;;;18.90;100.00;101027.38;4859900;29;20428;-84
2023/07/10 07:05:52;;;;;;;8.00;6.72;;;;;;;19.04;100.00;101034.72;4857771;29;20102;-89
2023/07/10 07:08:20;;;;;;;8.35;6.55;;;;;;;19.20;100.00;101035.69;4837963;29;20568;-84
2023/07/10 07:10:48;;;;;;;8.43;6.35;;;;;;;19.25;100.00;101030.09;4839664;29;20119;-84
2023/07/10 07:13:16;;;;;;;7.10;6.40;;;;;;;19.39;100.00;101019.53;4856557;29;20070;-86
2023/07/10 07:15:51;;;;;;;6.95;5.93;;;;;;;19.53;100.00;101009.00;4849430;29;20053;-86
2023/07/10 07:18:18;;;;;;;7.32;5.88;;;;;;;19.78;100.00;101002.38;4854799;29;20264;-89
2023/07/10 07:20:45;;;;;;;8.07;6.55;;;;;;;20.02;100.00;101001.06;4849311;29;20034;-84
2023/07/10 07:23:12;;;;;;;7.45;6.18;;;;;;;20.43;100.00;100997.88;4841342;29;20517;-84
2023/07/10 07:25:40;;;;;;;6.95;6.25;;;;;;;20.68;100.00;100997.41;4842864;29;20481;-83
2023/07/10 07:28:06;;;;;;;6.85;5.90;;;;;;;20.89;100.00;101003.38;4836404;29;20422;-83
2023/07/10 07:30:33;;;;;;;6.32;5.68;;;;;;;21.20;100.00;101002.44;4835445;29;20526;-83
2023/07/10 07:33:01;;;;;;;6.35;5.32;;;;;;;21.48;100.00;100999.84;4871108;29;20045;-86
2023/07/10 07:35:28;;;;;;;7.07;5.68;;;;;;;21.76;100.00;100996.34;4842788;29;20110;-85
2023/07/10 07:37:55;;;;;;;6.18;5.57;;;;;;;21.99;100.00;101002.97;4852620;29;20053;-82
2023/07/10 07:40:22;;;;;;;6.50;5.78;;;;;;;22.22;100.00;101000.72;4869428;29;20464;-83
2023/07/10 07:43:13;;;;;;;7.38;5.57;;;;;;;22.03;100.00;100991.09;4854336;24;20062;-84
2023/07/10 07:45:39;;;;;;;6.30;5.70;;;;;;;22.39;100.00;100985.22;4856266;29;20080;-83
2023/07/10 07:48:06;;;;;;;5.75;5.00;;;;;;;22.58;100.00;100995.63;4815481;29;20462;-83
2023/07/10 07:50:33;;;;;;;7.45;5.72;;;;;;;22.96;100.00;100995.00;4869142;29;20066;-84
2023/07/10 07:53:00;;;;;;;5.20;4.70;;;;;;;23.11;92.59;100991.25;4843331;29;20054;-83
2023/07/10 07:55:27;;;;;;;6.13;5.10;;;;;;;23.62;100.00;100985.09;4826522;29;20054;-83
2023/07/10 07:57:53;;;;;;;6.20;4.75;;;;;;;24.00;97.23;100985.97;4836852;29;20528;-84
2023/07/10 08:00:20;;;;;;;6.30;5.70;;;;;;;24.28;90.58;100968.63;4830877;29;20046;-83
2023/07/10 08:02:49;;;;;;;5.53;4.82;;;;;;;24.36;92.39;100970.81;4831895;29;20071;-83
2023/07/10 08:05:16;;;;;;;6.32;5.03;;;;;;;24.25;85.72;100968.88;4808671;29;20073;-83
2023/07/10 08:08:00;;;;;;;5.22;4.72;;;;;;;24.47;88.60;100972.72;4826448;29;20098;-82
2023/07/10 08:10:32;;;;;;;6.10;4.95;;;;;;;24.89;89.13;100980.34;4834256;29;20038;-82
2023/07/10 08:13:02;;;;;;;6.30;5.30;;;;;;;25.10;81.02;100967.06;4823979;29;20057;-83
2023/07/10 08:15:28;;;;;;;5.30;4.43;;;;;;;25.41;76.72;100959.31;4815418;29;20141;-83
2023/07/10 08:17:55;;;;;;;6.00;5.20;;;;;;;25.73;77.82;100954.97;4840148;29;20054;-82
2023/07/10 08:20:22;;;;;;;5.60;4.47;;;;;;;25.97;82.44;100968.38;4799541;29;20046;-83
2023/07/10 08:22:49;;;;;;;7.00;5.50;;;;;;;26.04;74.86;100958.78;4814504;29;20076;-82
2023/07/10 08:25:15;;;;;;;5.70;5.10;;;;;;;26.11;70.33;100953.72;4823722;29;20042;-82
2023/07/10 08:27:44;;;;;;;5.75;4.97;;;;;;;26.14;62.93;100947.19;4802399;29;20136;-83
2023/07/10 08:30:12;;;;;;;5.22;4.70;;;;;;;26.22;72.40;100948.28;4811511;29;20268;-84
2023/07/10 08:32:39;;;;;;;5.55;5.03;;;;;;;26.31;67.37;100943.97;4823546;29;20056;-85
2023/07/10 08:35:09;;;;;;;5.57;5.07;;;;;;;26.36;65.96;100936.34;4830820;29;20083;-82
2023/07/10 08:37:37;;;;;;;5.47;4.95;;;;;;;26.43;71.58;100934.88;4824534;29;20047;-83
2023/07/10 08:40:05;;;;;;;5.78;4.57;;;;;;;26.75;59.79;100943.03;4859081;29;20043;-81
2023/07/10 08:42:33;;;;;;;6.68;4.95;;;;;;;26.68;55.78;100935.56;4842346;29;20506;-84
2023/07/10 08:45:01;;;;;;;4.95;4.28;;;;;;;27.22;58.10;100935.44;4840331;29;20530;-83
2023/07/10 08:47:37;;;;;;;5.38;4.88;;;;;;;27.38;54.59;100934.97;4798047;29;20042;-84
2023/07/10 08:50:14;;;;;;;6.03;5.43;;;;;;;27.46;47.78;100937.91;4828707;29;20122;-85
2023/07/10 08:53:12;;;;;;;5.43;4.93;;;;;;;27.66;47.66;100934.34;4794870;29;20055;-84
2023/07/10 08:55:42;;;;;;;5.28;4.75;;;;;;;27.71;49.18;100934.78;4848124;29;20529;-83
2023/07/10 08:58:21;;;;;;;6.78;5.13;;;;;;;27.69;46.67;100942.22;4822702;29;20053;-85
2023/07/10 09:00:49;;;;;;;5.80;5.20;;;;;;;27.97;48.64;100937.03;4819006;29;20573;-82
2023/07/10 09:03:39;;;;;;;6.25;4.82;;;;;;;28.07;48.36;100932.50;4821338;29;20055;-84
2023/07/10 09:06:16;;;;;;;7.50;5.55;;;;;;;27.72;42.86;100922.06;4821073;29;20049;-83
2023/07/10 09:08:45;;;;;;;13.35;5.13;;;;;;;28.10;49.04;100931.38;4810140;29;20047;-84
2023/07/10 09:11:13;;;;;;;4.90;4.40;;;;;;;28.09;43.82;100925.09;4827102;29;20080;-85
2023/07/10 09:13:57;;;;;;;6.68;4.93;;;;;;;28.09;43.64;100914.22;4813851;29;20053;-84
2023/07/10 09:16:25;;;;;;;7.45;5.18;;;;;;;28.28;42.63;100924.28;4842827;29;20066;-84
2023/07/10 09:19:03;;;;;;;5.97;4.50;;;;;;;28.54;44.62;100916.50;4809286;29;20058;-84
2023/07/10 09:21:40;;;;;;;5.95;4.72;;;;;;;28.79;41.78;100915.94;4823932;29;20141;-83
2023/07/10 09:24:22;;;;;;;5.95;5.25;;;;;;;29.04;42.83;100917.25;4814552;29;20057;-84
2023/07/10 09:26:49;;;;;;;8.55;5.43;;;;;;;28.92;37.98;100914.81;4833560;29;20409;-85
2023/07/10 09:29:35;;;;;;;6.20;5.13;;;;;;;29.02;40.02;100915.69;4813219;29;20042;-86
2023/07/10 09:32:11;;;;;;;5.25;4.75;;;;;;;28.79;36.59;100925.97;4831275;29;20039;-86
2023/07/10 09:34:48;;;;;;;5.50;5.00;;;;;;;29.06;39.59;100915.25;4807640;29;20576;-85
2023/07/10 09:37:19;;;;;;;5.82;5.25;;;;;;;29.30;41.19;100920.22;4825207;29;20133;-85
2023/07/10 09:39:46;;;;;;;6.18;5.35;;;;;;;29.57;40.57;100913.16;4812323;29;20054;-80
2023/07/10 09:42:19;;;;;;;6.03;5.25;;;;;;;29.70;39.88;100921.88;4869836;29;20050;-81
2023/07/10 09:44:46;;;;;;;;;;;;;;;29.81;36.97;100918.09;4842596;29;20110;-82
2023/07/10 09:47:15;;;;;;;7.60;5.38;;;;;;;29.91;36.54;100922.50;4811843;29;19932;-81
2023/07/10 09:49:49;;;;;;;5.78;5.28;;;;;;;30.11;40.62;100915.13;4841327;29;20049;-85
2023/07/10 09:52:21;;;;;;;5.93;5.28;;;;;;;30.21;38.15;100910.47;4867162;29;20071;-81
2023/07/10 09:54:48;;;;;;;5.75;5.22;;;;;;;30.16;39.09;100896.44;4859255;29;20233;-82
2023/07/10 09:57:17;;;;;;;8.02;5.25;;;;;;;30.03;36.07;100887.75;4848164;29;20481;-81
2023/07/10 09:59:49;;;;;;;6.25;5.10;;;;;;;30.31;37.43;100890.47;4836139;29;20059;-81
2023/07/10 10:02:20;;;;;;;5.55;5.05;;;;;;;30.64;38.63;100888.94;4863737;29;20080;-82
2023/07/10 10:05:15;;;;;;;6.40;5.85;;;;;;;30.94;37.52;100884.97;4855050;29;20098;-82
2023/07/10 10:07:45;;;;;;;6.05;4.90;;;;;;;31.06;36.81;100881.00;4815342;29;20106;-84
2023/07/10 10:10:20;;;;;;;5.93;5.10;;;;;;;31.25;35.48;100886.28;4838361;29;20059;-83
2023/07/10 10:13:21;;;;;;;5.60;5.00;;;;;;;31.37;35.55;100875.97;4860713;29;20052;-82
2023/07/10 10:16:12;;;;;;;5.63;4.97;;;;;;;31.63;36.49;100885.00;4835499;29;20573;-81
2023/07/10 10:18:50;;;;;;;5.97;5.38;;;;;;;31.80;36.20;100885.97;4830128;29;20054;-82
2023/07/10 10:21:19;;;;;;;5.70;5.20;;;;;;;31.62;34.51;100887.91;4834532;29;20054;-82
2023/07/10 10:23:51;;;;;;;6.38;5.32;;;;;;;31.39;35.68;100890.31;4812522;29;20491;-83
2023/07/10 10:26:50;;;;;;;5.93;5.30;;;;;;;31.37;34.45;100890.47;4840227;29;20054;-81
2023/07/10 10:29:38;;;;;;;5.90;5.30;;;;;;;31.59;35.42;100888.19;4859690;29;20054;-84
2023/07/10 10:32:07;;;;;;;6.03;4.85;;;;;;;31.58;36.27;100889.22;4832947;29;20121;-84
2023/07/10 10:34:46;;;;;;;6.35;5.75;;;;;;;31.42;34.86;100889.13;4812333;29;20042;-82
2023/07/10 10:37:30;;;;;;;6.45;5.50;;;;;;;31.29;35.99;100887.69;4832527;29;20042;-83
2023/07/10 10:40:01;;;;;;;6.00;5.38;;;;;;;31.25;37.23;100889.00;4820718;29;20464;-85
2023/07/10 10:42:34;;;;;;;6.55;4.88;;;;;;;31.27;36.25;100883.38;4828106;29;20046;-84
2023/07/10 10:45:13;;;;;;;5.85;5.30;;;;;;;31.45;35.63;100876.03;4847238;29;20046;-84
2023/07/10 10:48:04;;;;;;;6.45;5.85;;;;;;;31.42;36.06;100880.94;4835686;29;20046;-83
2023/07/10 10:50:39;;;;;;;5.63;5.13;;;;;;;31.42;37.55;100878.19;4821533;29;20106;-85
2023/07/10 10:53:18;;;;;;;6.07;5.47;;;;;;;31.27;37.40;100886.13;4845681;29;20050;-84
2023/07/10 10:56:07;;;;;;;7.32;5.97;;;;;;;31.28;37.43;100876.94;4860528;29;20042;-83
2023/07/10 10:58:37;;;;;;;6.43;5.78;;;;;;;31.36;37.10;100874.22;4836841;29;20132;-84
2023/07/10 11:01:07;;;;;;;5.38;4.88;;;;;;;31.33;36.74;100869.97;4832567;29;20129;-83
2023/07/10 11:03:40;;;;;;;5.80;5.18;;;;;;;31.25;38.67;100877.25;4852407;29;20046;-85
2023/07/10 11:06:26;;;;;;;;;;;;;;;31.21;37.88;100878.56;4832091;29;20418;-82
2023/07/10 11:08:57;;;;;;;6.20;5.60;;;;;;;31.11;39.39;100878.66;4835324;29;19924;-82
2023/07/10 11:11:29;;;;;;;5.75;5.28;;;;;;;30.88;38.15;100885.63;4818231;29;20427;-84
2023/07/10 11:13:56;;;;;;;6.60;6.00;;;;;;;30.82;39.63;100877.03;4825762;29;20251;-84
2023/07/10 11:16:29;;;;;;;6.32;5.40;;;;;;;31.03;40.57;100878.59;4848685;29;20045;-84
2023/07/10 11:18:56;;;;;;;5.90;5.40;;;;;;;31.17;38.81;100869.81;4833479;29;20039;-86
2023/07/10 11:21:23;;;;;;;8.07;6.10;;;;;;;31.45;38.49;100864.22;4841919;29;20068;-84
2023/07/10 11:23:51;;;;;;;7.45;6.63;;;;;;;31.62;39.00;100863.31;4814454;29;20050;-88
2023/07/10 11:26:25;;;;;;;6.82;6.13;;;;;;;31.73;37.87;100863.03;4864791;29;20046;-88
2023/07/10 11:28:53;;;;;;;5.97;5.47;;;;;;;31.94;38.56;100871.66;4823677;29;20077;-86
2023/07/10 11:31:35;;;;;;;6.57;5.97;;;;;;;31.96;37.49;100873.41;4849581;29;20465;-87
2023/07/10 11:34:05;;;;;;;6.25;5.65;;;;;;;32.00;38.05;100864.69;4823563;29;20042;-86
2023/07/10 11:36:43;;;;;;;6.82;6.18;;;;;;;31.92;39.01;100857.31;4840912;29;20255;-86